createdAt,value
2019-04-10T00:00:23.126Z,1009.23
2019-04-10T00:01:23.634Z,1009.28
2019-04-10T00:02:23.733Z,1009.25
2019-04-10T00:03:31.571Z,1009.29
2019-04-10T00:04:23.808Z,1009.27
2019-04-10T00:05:23.478Z,1009.29
2019-04-10T00:06:23.727Z,1009.28
2019-04-10T00:07:23.583Z,1009.30
2019-04-10T00:08:22.758Z,1009.26
2019-04-10T00:09:23.165Z,1009.31
2019-04-10T00:10:23.586Z,1009.29
2019-04-10T00:11:22.866Z,1009.31
2019-04-10T00:12:23.327Z,1009.28
2019-04-10T00:13:22.695Z,1009.31
2019-04-10T00:14:22.687Z,1009.31
2019-04-10T00:15:22.684Z,1009.29
2019-04-10T00:16:22.659Z,1009.33
2019-04-10T00:17:22.651Z,1009.31
2019-04-10T00:18:22.683Z,1009.34
2019-04-10T00:19:22.630Z,1009.31
2019-04-10T00:20:22.633Z,1009.36
2019-04-10T00:21:23.013Z,1009.31
2019-04-10T00:22:22.592Z,1009.31
2019-04-10T00:23:22.739Z,1009.37
2019-04-10T00:24:22.614Z,1009.37
2019-04-10T00:25:22.562Z,1009.39
2019-04-10T00:26:23.722Z,1009.33
2019-04-10T00:27:22.829Z,1009.33
2019-04-10T00:28:23.385Z,1009.34
2019-04-10T00:29:22.523Z,1009.35
2019-04-10T00:30:22.555Z,1009.31
2019-04-10T00:31:22.984Z,1009.36
2019-04-10T00:32:23.675Z,1009.36
2019-04-10T00:33:22.911Z,1009.36
2019-04-10T00:34:23.303Z,1009.37
2019-04-10T00:35:23.561Z,1009.36
2019-04-10T00:36:22.485Z,1009.34
2019-04-10T00:37:28.142Z,1009.31
2019-04-10T00:38:24.082Z,1009.36
2019-04-10T00:39:22.413Z,1009.32
2019-04-10T00:40:23.448Z,1009.35
2019-04-10T00:41:22.417Z,1009.36
2019-04-10T00:42:23.097Z,1009.37
2019-04-10T00:43:22.621Z,1009.38
2019-04-10T00:44:22.352Z,1009.34
2019-04-10T00:45:22.340Z,1009.36
2019-04-10T00:46:22.331Z,1009.39
2019-04-10T00:47:23.248Z,1009.47
2019-04-10T00:48:22.350Z,1009.44
2019-04-10T00:49:22.295Z,1009.42
2019-04-10T00:50:22.363Z,1009.41
2019-04-10T00:51:22.275Z,1009.48
2019-04-10T00:52:22.268Z,1009.44
2019-04-10T00:53:23.216Z,1009.44
2019-04-10T00:54:22.269Z,1009.45
2019-04-10T00:55:22.230Z,1009.43
2019-04-10T00:56:22.219Z,1009.44
2019-04-10T00:57:23.454Z,1009.48
2019-04-10T00:58:22.501Z,1009.47
2019-04-10T00:59:22.200Z,1009.46
2019-04-10T01:00:23.557Z,1009.48
2019-04-10T01:01:22.168Z,1009.47
2019-04-10T01:02:22.679Z,1009.50
2019-04-10T01:03:23.473Z,1009.50
2019-04-10T01:04:22.360Z,1009.48
2019-04-10T01:05:22.894Z,1009.47
2019-04-10T01:06:22.142Z,1009.45
2019-04-10T01:07:32.569Z,1009.46
2019-04-10T01:08:23.083Z,1009.47
2019-04-10T01:09:22.073Z,1009.48
2019-04-10T01:10:22.114Z,1009.44
2019-04-10T01:11:23.105Z,1009.47
2019-04-10T01:12:22.061Z,1009.45
2019-04-10T01:13:22.994Z,1009.42
2019-04-10T01:14:22.020Z,1009.47
2019-04-10T01:15:22.616Z,1009.44
2019-04-10T01:16:22.975Z,1009.46
2019-04-10T01:17:22.270Z,1009.43
2019-04-10T01:18:21.997Z,1009.47
2019-04-10T01:19:21.966Z,1009.47
2019-04-10T01:20:21.955Z,1009.48
2019-04-10T01:21:22.169Z,1009.45
2019-04-10T01:22:21.944Z,1009.45
2019-04-10T01:23:22.576Z,1009.46
2019-04-10T01:24:21.940Z,1009.45
2019-04-10T01:25:22.062Z,1009.44
2019-04-10T01:26:21.888Z,1009.47
2019-04-10T01:27:21.894Z,1009.43
2019-04-10T01:28:22.716Z,1009.44
2019-04-10T01:29:21.858Z,1009.43
2019-04-10T01:30:22.234Z,1009.45
2019-04-10T01:31:21.832Z,1009.40
2019-04-10T01:32:21.822Z,1009.44
2019-04-10T01:33:22.761Z,1009.41
2019-04-10T01:34:21.802Z,1009.45
2019-04-10T01:35:22.462Z,1009.44
2019-04-10T01:36:22.786Z,1009.46
2019-04-10T01:37:22.753Z,1009.45
2019-04-10T01:38:21.878Z,1009.46
2019-04-10T01:39:22.303Z,1009.44
2019-04-10T01:40:21.806Z,1009.43
2019-04-10T01:41:21.791Z,1009.50
2019-04-10T01:42:22.783Z,1009.48
2019-04-10T01:43:22.527Z,1009.47
2019-04-10T01:44:22.739Z,1009.50
2019-04-10T01:45:21.762Z,1009.48
2019-04-10T01:46:22.302Z,1009.47
2019-04-10T01:47:21.658Z,1009.49
2019-04-10T01:48:21.769Z,1009.49
2019-04-10T01:49:21.786Z,1009.50
2019-04-10T01:50:22.165Z,1009.47
2019-04-10T01:51:21.625Z,1009.47
2019-04-10T01:52:22.656Z,1009.48
2019-04-10T01:53:21.829Z,1009.46
2019-04-10T01:54:22.571Z,1009.49
2019-04-10T01:55:26.669Z,1009.54
2019-04-10T01:56:30.836Z,1009.50
2019-04-10T01:57:22.558Z,1009.50
2019-04-10T01:58:21.547Z,1009.48
2019-04-10T01:59:21.610Z,1009.53
2019-04-10T02:00:21.643Z,1009.54
2019-04-10T02:01:21.503Z,1009.56
2019-04-10T02:02:21.492Z,1009.54
2019-04-10T02:03:22.236Z,1009.57
2019-04-10T02:04:21.535Z,1009.58
2019-04-10T02:05:21.462Z,1009.53
2019-04-10T02:06:21.488Z,1009.56
2019-04-10T02:07:22.997Z,1009.53
2019-04-10T02:08:21.530Z,1009.55
2019-04-10T02:09:21.490Z,1009.57
2019-04-10T02:10:21.403Z,1009.59
2019-04-10T02:11:21.779Z,1009.58
2019-04-10T02:12:21.403Z,1009.56
2019-04-10T02:13:21.368Z,1009.54
2019-04-10T02:14:22.362Z,1009.54
2019-04-10T02:15:21.719Z,1009.54
2019-04-10T02:16:21.340Z,1009.51
2019-04-10T02:17:22.241Z,1009.46
2019-04-10T02:18:21.462Z,1009.42
2019-04-10T02:19:21.876Z,1009.48
2019-04-10T02:20:21.313Z,1009.48
2019-04-10T02:21:21.286Z,1009.44
2019-04-10T02:22:21.276Z,1009.46
2019-04-10T02:23:21.261Z,1009.51
2019-04-10T02:24:21.272Z,1009.51
2019-04-10T02:25:21.969Z,1009.56
2019-04-10T02:26:21.357Z,1009.58
2019-04-10T02:27:22.411Z,1009.58
2019-04-10T02:28:29.126Z,1009.58
2019-04-10T02:29:21.813Z,1009.56
2019-04-10T02:30:21.928Z,1009.55
2019-04-10T02:31:23.155Z,1009.51
2019-04-10T02:32:21.281Z,1009.52
2019-04-10T02:33:21.233Z,1009.51
2019-04-10T02:34:21.399Z,1009.53
2019-04-10T02:35:22.537Z,1009.51
2019-04-10T02:36:21.329Z,1009.54
2019-04-10T02:37:22.334Z,1009.58
2019-04-10T02:38:35.976Z,1009.59
2019-04-10T02:39:31.244Z,1009.58
2019-04-10T02:40:23.651Z,1009.60
2019-04-10T02:41:21.600Z,1009.61
2019-04-10T02:42:22.457Z,1009.60
2019-04-10T02:43:21.241Z,1009.61
2019-04-10T02:44:22.780Z,1009.60
2019-04-10T02:45:21.935Z,1009.59
2019-04-10T02:46:21.977Z,1009.63
2019-04-10T02:47:21.172Z,1009.58
2019-04-10T02:48:21.078Z,1009.65
2019-04-10T02:49:22.232Z,1009.67
2019-04-10T02:50:21.000Z,1009.67
2019-04-10T02:51:22.921Z,1009.67
2019-04-10T02:52:22.497Z,1009.62
2019-04-10T02:53:21.598Z,1009.59
2019-04-10T02:54:21.283Z,1009.60
2019-04-10T02:55:20.916Z,1009.53
2019-04-10T02:56:22.967Z,1009.54
2019-04-10T02:57:21.515Z,1009.55
2019-04-10T02:58:22.151Z,1009.57
2019-04-10T02:59:21.197Z,1009.58
2019-04-10T03:00:22.312Z,1009.54
2019-04-10T03:01:20.846Z,1009.56
2019-04-10T03:02:22.051Z,1009.52
2019-04-10T03:03:22.328Z,1009.53
2019-04-10T03:04:21.099Z,1009.52
2019-04-10T03:05:22.926Z,1009.52
2019-04-10T03:06:20.834Z,1009.54
2019-04-10T03:07:21.987Z,1009.52
2019-04-10T03:08:38.235Z,1009.50
2019-04-10T03:09:40.491Z,1009.49
2019-04-10T03:10:26.527Z,1009.49
2019-04-10T03:11:22.298Z,1009.51
2019-04-10T03:12:21.928Z,1009.49
2019-04-10T03:13:21.909Z,1009.50
2019-04-10T03:14:21.226Z,1009.47
2019-04-10T03:15:20.822Z,1009.48
2019-04-10T03:16:21.590Z,1009.52
2019-04-10T03:17:20.817Z,1009.48
2019-04-10T03:18:20.967Z,1009.48
2019-04-10T03:19:21.336Z,1009.51
2019-04-10T03:20:20.691Z,1009.54
2019-04-10T03:21:20.803Z,1009.56
2019-04-10T03:22:20.854Z,1009.55
2019-04-10T03:23:21.078Z,1009.55
2019-04-10T03:24:21.268Z,1009.60
2019-04-10T03:25:21.205Z,1009.61
2019-04-10T03:26:21.521Z,1009.68
2019-04-10T03:27:20.621Z,1009.70
2019-04-10T03:28:20.549Z,1009.65
2019-04-10T03:29:20.549Z,1009.67
2019-04-10T03:30:22.778Z,1009.66
2019-04-10T03:31:22.413Z,1009.66
2019-04-10T03:32:21.188Z,1009.68
2019-04-10T03:33:24.636Z,1009.66
2019-04-10T03:34:22.662Z,1009.63
2019-04-10T03:35:20.700Z,1009.69
2019-04-10T03:36:21.181Z,1009.63
2019-04-10T03:37:20.489Z,1009.64
2019-04-10T03:38:21.579Z,1009.62
2019-04-10T03:39:21.529Z,1009.66
2019-04-10T03:40:21.588Z,1009.69
2019-04-10T03:41:20.416Z,1009.66
2019-04-10T03:42:21.033Z,1009.65
2019-04-10T03:43:21.476Z,1009.66
2019-04-10T03:44:20.729Z,1009.69
2019-04-10T03:45:20.370Z,1009.64
2019-04-10T03:46:21.427Z,1009.68
2019-04-10T03:47:20.349Z,1009.65
2019-04-10T03:48:20.350Z,1009.66
2019-04-10T03:49:20.358Z,1009.66
2019-04-10T03:50:20.334Z,1009.64
2019-04-10T03:51:20.658Z,1009.66
2019-04-10T03:52:21.103Z,1009.65
2019-04-10T03:53:20.371Z,1009.68
2019-04-10T03:54:20.767Z,1009.67
2019-04-10T03:55:20.968Z,1009.67
2019-04-10T03:56:21.297Z,1009.70
2019-04-10T03:57:20.598Z,1009.71
2019-04-10T03:58:20.227Z,1009.73
2019-04-10T03:59:20.252Z,1009.71
2019-04-10T04:00:21.018Z,1009.69
2019-04-10T04:01:20.217Z,1009.75
2019-04-10T04:02:20.217Z,1009.72
2019-04-10T04:03:20.408Z,1009.70
2019-04-10T04:04:20.195Z,1009.74
2019-04-10T04:05:20.399Z,1009.70
2019-04-10T04:06:20.148Z,1009.72
2019-04-10T04:07:21.016Z,1009.72
2019-04-10T04:08:20.121Z,1009.73
2019-04-10T04:09:20.105Z,1009.73
2019-04-10T04:10:20.469Z,1009.72
2019-04-10T04:11:20.088Z,1009.69
2019-04-10T04:12:20.300Z,1009.72
2019-04-10T04:13:20.082Z,1009.74
2019-04-10T04:14:20.094Z,1009.74
2019-04-10T04:15:20.043Z,1009.76
2019-04-10T04:16:20.039Z,1009.75
2019-04-10T04:17:20.138Z,1009.79
2019-04-10T04:18:20.030Z,1009.80
2019-04-10T04:19:20.016Z,1009.84
2019-04-10T04:20:21.064Z,1009.79
2019-04-10T04:21:19.984Z,1009.85
2019-04-10T04:22:20.862Z,1009.88
2019-04-10T04:23:19.957Z,1009.86
2019-04-10T04:24:22.498Z,1009.87
2019-04-10T04:25:19.952Z,1009.95
2019-04-10T04:26:19.925Z,1009.93
2019-04-10T04:27:20.067Z,1009.91
2019-04-10T04:28:20.114Z,1009.92
2019-04-10T04:29:20.550Z,1009.92
2019-04-10T04:30:20.461Z,1009.91
2019-04-10T04:31:19.866Z,1009.91
2019-04-10T04:32:19.878Z,1009.96
2019-04-10T04:33:19.858Z,1009.92
2019-04-10T04:34:20.900Z,1009.99
2019-04-10T04:35:20.017Z,1010.00
2019-04-10T04:36:20.405Z,1009.93
2019-04-10T04:37:20.808Z,1009.98
2019-04-10T04:38:20.061Z,1010.02
2019-04-10T04:39:25.732Z,1010.04
2019-04-10T04:40:21.733Z,1010.04
2019-04-10T04:41:19.751Z,1010.06
2019-04-10T04:42:19.756Z,1010.03
2019-04-10T04:43:21.615Z,1010.09
2019-04-10T04:44:20.278Z,1010.08
2019-04-10T04:45:19.724Z,1010.14
2019-04-10T04:46:20.555Z,1010.17
2019-04-10T04:47:19.735Z,1010.16
2019-04-10T04:48:19.678Z,1010.19
2019-04-10T04:49:20.684Z,1010.16
2019-04-10T04:50:19.982Z,1010.17
2019-04-10T04:51:19.764Z,1010.17
2019-04-10T04:52:20.396Z,1010.19
2019-04-10T04:53:19.623Z,1010.22
2019-04-10T04:54:19.629Z,1010.24
2019-04-10T04:55:19.828Z,1010.26
2019-04-10T04:56:19.926Z,1010.27
2019-04-10T04:57:20.477Z,1010.23
2019-04-10T04:58:20.260Z,1010.23
2019-04-10T04:59:20.531Z,1010.28
2019-04-10T05:00:19.575Z,1010.28
2019-04-10T05:01:19.538Z,1010.27
2019-04-10T05:02:19.910Z,1010.31
2019-04-10T05:03:20.643Z,1010.31
2019-04-10T05:04:19.516Z,1010.36
2019-04-10T05:05:19.655Z,1010.36
2019-04-10T05:06:20.118Z,1010.35
2019-04-10T05:07:20.320Z,1010.35
2019-04-10T05:08:19.676Z,1010.37
2019-04-10T05:09:30.387Z,1010.39
2019-04-10T05:10:20.892Z,1010.40
2019-04-10T05:11:20.461Z,1010.40
2019-04-10T05:12:20.223Z,1010.43
2019-04-10T05:13:19.416Z,1010.42
2019-04-10T05:14:19.624Z,1010.47
2019-04-10T05:15:20.484Z,1010.44
2019-04-10T05:16:19.392Z,1010.46
2019-04-10T05:17:19.985Z,1010.44
2019-04-10T05:18:19.350Z,1010.47
2019-04-10T05:19:19.348Z,1010.50
2019-04-10T05:20:19.395Z,1010.44
2019-04-10T05:21:19.321Z,1010.51
2019-04-10T05:22:19.313Z,1010.52
2019-04-10T05:23:19.309Z,1010.55
2019-04-10T05:24:19.944Z,1010.57
2019-04-10T05:25:19.275Z,1010.59
2019-04-10T05:26:19.304Z,1010.62
2019-04-10T05:27:19.267Z,1010.67
2019-04-10T05:28:20.295Z,1010.66
2019-04-10T05:29:19.615Z,1010.70
2019-04-10T05:30:19.220Z,1010.69
2019-04-10T05:31:19.344Z,1010.74
2019-04-10T05:32:19.204Z,1010.72
2019-04-10T05:33:19.190Z,1010.75
2019-04-10T05:34:19.902Z,1010.76
2019-04-10T05:35:19.334Z,1010.82
2019-04-10T05:36:19.437Z,1010.84
2019-04-10T05:37:19.224Z,1010.80
2019-04-10T05:38:19.149Z,1010.85
2019-04-10T05:39:19.184Z,1010.82
2019-04-10T05:40:19.645Z,1010.89
2019-04-10T05:41:19.690Z,1010.88
2019-04-10T05:42:19.082Z,1010.97
2019-04-10T05:43:19.930Z,1010.89
2019-04-10T05:44:20.108Z,1010.91
2019-04-10T05:45:19.192Z,1010.91
2019-04-10T05:46:19.069Z,1010.96
2019-04-10T05:47:19.315Z,1010.89
2019-04-10T05:48:21.861Z,1011.00
2019-04-10T05:49:19.014Z,1010.95
2019-04-10T05:50:19.412Z,1010.97
2019-04-10T05:51:19.238Z,1010.95
2019-04-10T05:52:19.038Z,1010.98
2019-04-10T05:53:18.971Z,1010.99
2019-04-10T05:54:19.261Z,1010.99
2019-04-10T05:55:18.955Z,1010.96
2019-04-10T05:56:19.179Z,1010.98
2019-04-10T05:57:19.992Z,1010.95
2019-04-10T05:58:19.624Z,1010.98
2019-04-10T05:59:19.583Z,1010.98
2019-04-10T06:00:18.991Z,1011.05
2019-04-10T06:01:30.008Z,1011.03
2019-04-10T06:02:20.083Z,1011.03
2019-04-10T06:03:18.923Z,1010.96
2019-04-10T06:04:19.027Z,1010.98
2019-04-10T06:05:18.841Z,1011.02
2019-04-10T06:06:19.972Z,1011.02
2019-04-10T06:07:19.147Z,1011.06
2019-04-10T06:08:18.825Z,1010.98
2019-04-10T06:09:18.791Z,1011.04
2019-04-10T06:10:19.644Z,1010.96
2019-04-10T06:11:18.809Z,1011.01
2019-04-10T06:12:18.769Z,1010.96
2019-04-10T06:13:19.328Z,1010.96
2019-04-10T06:14:18.798Z,1011.04
2019-04-10T06:15:19.075Z,1010.97
2019-04-10T06:16:19.491Z,1011.02
2019-04-10T06:17:18.719Z,1010.97
2019-04-10T06:18:18.840Z,1010.99
2019-04-10T06:19:19.718Z,1011.02
2019-04-10T06:20:18.712Z,1011.00
2019-04-10T06:21:18.923Z,1010.98
2019-04-10T06:22:18.780Z,1011.00
2019-04-10T06:23:19.152Z,1010.99
2019-04-10T06:24:18.625Z,1010.97
2019-04-10T06:25:19.695Z,1010.99
2019-04-10T06:26:19.909Z,1011.01
2019-04-10T06:27:18.616Z,1011.00
2019-04-10T06:28:18.594Z,1011.05
2019-04-10T06:29:19.211Z,1011.04
2019-04-10T06:30:19.713Z,1011.06
2019-04-10T06:31:18.727Z,1011.06
2019-04-10T06:32:19.142Z,1011.10
2019-04-10T06:33:18.543Z,1011.05
2019-04-10T06:34:18.905Z,1010.99
2019-04-10T06:35:19.692Z,1011.03
2019-04-10T06:36:19.516Z,1011.01
2019-04-10T06:37:18.482Z,1011.06
2019-04-10T06:38:18.989Z,1011.07
2019-04-10T06:39:18.486Z,1011.05
2019-04-10T06:40:21.327Z,1011.10
2019-04-10T06:41:19.230Z,1011.15
2019-04-10T06:42:18.430Z,1011.18
2019-04-10T06:43:19.080Z,1011.12
2019-04-10T06:44:19.453Z,1011.13
2019-04-10T06:45:18.415Z,1011.12
2019-04-10T06:46:18.385Z,1011.11
2019-04-10T06:47:18.397Z,1011.17
2019-04-10T06:48:19.242Z,1011.18
2019-04-10T06:49:18.368Z,1011.16
2019-04-10T06:50:18.987Z,1011.13
2019-04-10T06:51:19.802Z,1011.16
2019-04-10T06:52:18.594Z,1011.15
2019-04-10T06:53:18.712Z,1011.22
2019-04-10T06:54:18.495Z,1011.25
2019-04-10T06:55:18.637Z,1011.21
2019-04-10T06:56:18.726Z,1011.23
2019-04-10T06:57:18.732Z,1011.17
2019-04-10T06:58:18.249Z,1011.18
2019-04-10T06:59:18.272Z,1011.18
2019-04-10T07:00:19.740Z,1011.15
2019-04-10T07:01:20.970Z,1011.17
2019-04-10T07:02:25.558Z,1011.22
2019-04-10T07:03:19.234Z,1011.12
2019-04-10T07:04:21.878Z,1011.22
2019-04-10T07:05:19.881Z,1011.17
2019-04-10T07:06:21.620Z,1011.18
2019-04-10T07:07:21.889Z,1011.15
2019-04-10T07:08:22.385Z,1011.22
2019-04-10T07:09:20.894Z,1011.18
2019-04-10T07:10:27.403Z,1011.08
2019-04-10T07:11:21.716Z,1011.13
2019-04-10T07:12:18.544Z,1011.17
2019-04-10T07:13:18.098Z,1011.15
2019-04-10T07:14:18.368Z,1011.19
2019-04-10T07:15:21.203Z,1011.18
2019-04-10T07:16:20.017Z,1011.18
2019-04-10T07:17:18.046Z,1011.19
2019-04-10T07:18:20.302Z,1011.20
2019-04-10T07:19:18.020Z,1011.29
2019-04-10T07:20:19.385Z,1011.30
2019-04-10T07:21:18.024Z,1011.16
2019-04-10T07:22:17.985Z,1011.20
2019-04-10T07:23:23.411Z,1011.19
2019-04-10T07:24:18.966Z,1011.20
2019-04-10T07:25:17.953Z,1011.19
2019-04-10T07:26:25.682Z,1011.23
2019-04-10T07:27:19.542Z,1011.13
2019-04-10T07:28:17.923Z,1011.14
2019-04-10T07:29:21.116Z,1011.21
2019-04-10T07:30:19.486Z,1011.25
2019-04-10T07:31:17.890Z,1011.25
2019-04-10T07:32:18.426Z,1011.21
2019-04-10T07:33:19.657Z,1011.20
2019-04-10T07:34:23.893Z,1011.17
2019-04-10T07:35:21.447Z,1011.22
2019-04-10T07:36:18.194Z,1011.29
2019-04-10T07:37:21.300Z,1011.33
2019-04-10T07:38:21.128Z,1011.29
2019-04-10T07:39:17.816Z,1011.29
2019-04-10T07:40:18.602Z,1011.28
2019-04-10T07:41:21.388Z,1011.22
2019-04-10T07:42:26.822Z,1011.22
2019-04-10T07:43:25.515Z,1011.24
2019-04-10T07:44:18.744Z,1011.25
2019-04-10T07:45:17.731Z,1011.26
2019-04-10T07:46:17.774Z,1011.29
2019-04-10T07:47:17.711Z,1011.25
2019-04-10T07:48:18.450Z,1011.24
2019-04-10T07:49:19.412Z,1011.25
2019-04-10T07:50:18.406Z,1011.27
2019-04-10T07:51:17.669Z,1011.29
2019-04-10T07:52:20.020Z,1011.28
2019-04-10T07:53:17.653Z,1011.29
2019-04-10T07:54:20.815Z,1011.27
2019-04-10T07:55:17.639Z,1011.30
2019-04-10T07:56:20.715Z,1011.25
2019-04-10T07:57:17.600Z,1011.29
2019-04-10T07:58:17.601Z,1011.30
2019-04-10T07:59:18.482Z,1011.26
2019-04-10T08:00:18.137Z,1011.21
2019-04-10T08:01:18.279Z,1011.24
2019-04-10T08:02:17.543Z,1011.30
2019-04-10T08:03:18.757Z,1011.24
2019-04-10T08:04:18.237Z,1011.32
2019-04-10T08:05:18.765Z,1011.26
2019-04-10T08:06:17.930Z,1011.29
2019-04-10T08:07:26.723Z,1011.26
2019-04-10T08:08:19.392Z,1011.43
2019-04-10T08:09:17.467Z,1011.36
2019-04-10T08:10:17.964Z,1011.32
2019-04-10T08:11:17.648Z,1011.36
2019-04-10T08:12:17.435Z,1011.39
2019-04-10T08:13:17.421Z,1011.35
2019-04-10T08:14:17.415Z,1011.39
2019-04-10T08:15:17.399Z,1011.36
2019-04-10T08:16:17.427Z,1011.37
2019-04-10T08:17:17.381Z,1011.35
2019-04-10T08:18:17.368Z,1011.37
2019-04-10T08:19:17.359Z,1011.37
2019-04-10T08:20:17.716Z,1011.35
2019-04-10T08:21:17.721Z,1011.35
2019-04-10T08:22:17.966Z,1011.36
2019-04-10T08:23:17.592Z,1011.41
2019-04-10T08:24:18.143Z,1011.32
2019-04-10T08:25:18.358Z,1011.38
2019-04-10T08:26:18.315Z,1011.40
2019-04-10T08:27:17.282Z,1011.42
2019-04-10T08:28:17.833Z,1011.44
2019-04-10T08:29:24.303Z,1011.44
2019-04-10T08:30:17.462Z,1011.38
2019-04-10T08:31:17.222Z,1011.41
2019-04-10T08:32:18.088Z,1011.44
2019-04-10T08:33:17.533Z,1011.42
2019-04-10T08:34:17.344Z,1011.40
2019-04-10T08:35:17.444Z,1011.43
2019-04-10T08:36:17.211Z,1011.38
2019-04-10T08:37:17.358Z,1011.38
2019-04-10T08:38:17.303Z,1011.39
2019-04-10T08:39:28.590Z,1011.43
2019-04-10T08:40:19.089Z,1011.39
2019-04-10T08:41:17.242Z,1011.44
2019-04-10T08:42:17.106Z,1011.43
2019-04-10T08:43:17.108Z,1011.43
2019-04-10T08:44:17.761Z,1011.45
2019-04-10T08:45:17.075Z,1011.43
2019-04-10T08:46:17.726Z,1011.42
2019-04-10T08:47:17.295Z,1011.41
2019-04-10T08:48:17.706Z,1011.35
2019-04-10T08:49:17.033Z,1011.40
2019-04-10T08:50:17.413Z,1011.40
2019-04-10T08:51:17.159Z,1011.41
2019-04-10T08:52:17.000Z,1011.43
2019-04-10T08:53:18.030Z,1011.44
2019-04-10T08:54:16.993Z,1011.42
2019-04-10T08:55:17.759Z,1011.47
2019-04-10T08:56:16.958Z,1011.41
2019-04-10T08:57:17.173Z,1011.46
2019-04-10T08:58:16.929Z,1011.40
2019-04-10T08:59:16.934Z,1011.43
2019-04-10T09:00:16.908Z,1011.42
2019-04-10T09:01:17.407Z,1011.44
2019-04-10T09:02:17.923Z,1011.45
2019-04-10T09:03:17.047Z,1011.40
2019-04-10T09:04:17.852Z,1011.50
2019-04-10T09:05:17.504Z,1011.46
2019-04-10T09:06:17.524Z,1011.46
2019-04-10T09:07:16.954Z,1011.49
2019-04-10T09:08:17.060Z,1011.51
2019-04-10T09:09:17.331Z,1011.41
2019-04-10T09:10:16.796Z,1011.47
2019-04-10T09:11:25.455Z,1011.46
2019-04-10T09:12:17.851Z,1011.46
2019-04-10T09:13:16.834Z,1011.45
2019-04-10T09:14:17.059Z,1011.45
2019-04-10T09:15:17.853Z,1011.46
2019-04-10T09:16:16.743Z,1011.45
2019-04-10T09:17:17.379Z,1011.49
2019-04-10T09:18:16.892Z,1011.41
2019-04-10T09:19:16.709Z,1011.42
2019-04-10T09:20:16.693Z,1011.51
2019-04-10T09:21:17.458Z,1011.46
2019-04-10T09:22:16.663Z,1011.44
2019-04-10T09:23:25.195Z,1011.47
2019-04-10T09:24:17.642Z,1011.51
2019-04-10T09:25:17.911Z,1011.55
2019-04-10T09:26:16.617Z,1011.50
2019-04-10T09:27:17.169Z,1011.51
2019-04-10T09:28:16.609Z,1011.53
2019-04-10T09:29:16.601Z,1011.55
2019-04-10T09:30:16.583Z,1011.50
2019-04-10T09:31:17.621Z,1011.51
2019-04-10T09:32:16.556Z,1011.54
2019-04-10T09:33:21.957Z,1011.49
2019-04-10T09:34:17.955Z,1011.51
2019-04-10T09:35:16.516Z,1011.48
2019-04-10T09:36:18.130Z,1011.50
2019-04-10T09:37:17.693Z,1011.49
2019-04-10T09:38:16.808Z,1011.47
2019-04-10T09:39:17.163Z,1011.59
2019-04-10T09:40:16.484Z,1011.52
2019-04-10T09:41:17.498Z,1011.50
2019-04-10T09:42:17.153Z,1011.60
2019-04-10T09:43:17.644Z,1011.49
2019-04-10T09:44:16.488Z,1011.49
2019-04-10T09:45:17.529Z,1011.55
2019-04-10T09:46:16.419Z,1011.55
2019-04-10T09:47:16.474Z,1011.48
2019-04-10T09:48:16.601Z,1011.49
2019-04-10T09:49:16.622Z,1011.54
2019-04-10T09:50:17.240Z,1011.48
2019-04-10T09:51:18.447Z,1011.51
2019-04-10T09:52:16.357Z,1011.53
2019-04-10T09:53:17.059Z,1011.54
2019-04-10T09:54:16.307Z,1011.57
2019-04-10T09:55:16.356Z,1011.51
2019-04-10T09:56:17.259Z,1011.48
2019-04-10T09:57:16.298Z,1011.55
2019-04-10T09:58:17.340Z,1011.56
2019-04-10T09:59:16.256Z,1011.55
2019-04-10T10:00:16.244Z,1011.51
2019-04-10T10:01:16.230Z,1011.49
2019-04-10T10:02:17.553Z,1011.55
2019-04-10T10:03:17.386Z,1011.47
2019-04-10T10:04:17.288Z,1011.46
2019-04-10T10:05:16.227Z,1011.47
2019-04-10T10:06:25.243Z,1011.49
2019-04-10T10:07:17.172Z,1011.46
2019-04-10T10:08:16.241Z,1011.50
2019-04-10T10:09:16.140Z,1011.53
2019-04-10T10:10:17.091Z,1011.55
2019-04-10T10:11:16.161Z,1011.53
2019-04-10T10:12:16.103Z,1011.50
2019-04-10T10:13:17.163Z,1011.50
2019-04-10T10:14:16.775Z,1011.54
2019-04-10T10:15:16.877Z,1011.52
2019-04-10T10:16:16.981Z,1011.52
2019-04-10T10:17:16.887Z,1011.52
2019-04-10T10:18:17.114Z,1011.51
2019-04-10T10:19:16.146Z,1011.58
2019-04-10T10:20:16.023Z,1011.51
2019-04-10T10:21:16.639Z,1011.56
2019-04-10T10:22:16.833Z,1011.54
2019-04-10T10:23:15.988Z,1011.49
2019-04-10T10:24:16.308Z,1011.50
2019-04-10T10:25:15.962Z,1011.49
2019-04-10T10:26:15.961Z,1011.43
2019-04-10T10:27:15.942Z,1011.52
2019-04-10T10:28:15.943Z,1011.49
2019-04-10T10:29:15.942Z,1011.54
2019-04-10T10:30:15.913Z,1011.53
2019-04-10T10:31:15.898Z,1011.50
2019-04-10T10:32:17.029Z,1011.54
2019-04-10T10:33:15.883Z,1011.52
2019-04-10T10:34:16.403Z,1011.46
2019-04-10T10:35:16.783Z,1011.49
2019-04-10T10:36:15.937Z,1011.53
2019-04-10T10:37:16.657Z,1011.52
2019-04-10T10:38:15.848Z,1011.51
2019-04-10T10:39:17.174Z,1011.52
2019-04-10T10:40:15.799Z,1011.50
2019-04-10T10:41:15.837Z,1011.46
2019-04-10T10:42:15.837Z,1011.48
2019-04-10T10:43:16.181Z,1011.58
2019-04-10T10:44:15.762Z,1011.46
2019-04-10T10:45:15.771Z,1011.49
2019-04-10T10:46:15.735Z,1011.49
2019-04-10T10:47:15.939Z,1011.36
2019-04-10T10:48:15.714Z,1011.38
2019-04-10T10:49:15.924Z,1011.38
2019-04-10T10:50:15.710Z,1011.45
2019-04-10T10:51:15.696Z,1011.46
2019-04-10T10:52:15.671Z,1011.44
2019-04-10T10:53:16.384Z,1011.38
2019-04-10T10:54:16.762Z,1011.39
2019-04-10T10:55:15.705Z,1011.41
2019-04-10T10:56:15.641Z,1011.47
2019-04-10T10:57:15.611Z,1011.53
2019-04-10T10:58:15.606Z,1011.44
2019-04-10T10:59:15.592Z,1011.41
2019-04-10T11:00:16.858Z,1011.45
2019-04-10T11:01:15.821Z,1011.47
2019-04-10T11:02:15.574Z,1011.45
2019-04-10T11:03:16.193Z,1011.45
2019-04-10T11:04:15.539Z,1011.46
2019-04-10T11:05:15.523Z,1011.47
2019-04-10T11:06:16.729Z,1011.46
2019-04-10T11:07:16.179Z,1011.49
2019-04-10T11:08:15.501Z,1011.47
2019-04-10T11:09:15.738Z,1011.50
2019-04-10T11:10:19.640Z,1011.49
2019-04-10T11:11:17.105Z,1011.49
2019-04-10T11:12:15.446Z,1011.45
2019-04-10T11:13:15.445Z,1011.46
2019-04-10T11:14:15.427Z,1011.49
2019-04-10T11:15:16.210Z,1011.48
2019-04-10T11:16:16.827Z,1011.46
2019-04-10T11:17:15.811Z,1011.51
2019-04-10T11:18:15.846Z,1011.52
2019-04-10T11:19:15.411Z,1011.57
2019-04-10T11:20:15.360Z,1011.49
2019-04-10T11:21:16.836Z,1011.54
2019-04-10T11:22:19.987Z,1011.55
2019-04-10T11:23:16.334Z,1011.56
2019-04-10T11:24:15.316Z,1011.57
2019-04-10T11:25:15.682Z,1011.61
2019-04-10T11:26:20.231Z,1011.55
2019-04-10T11:27:16.294Z,1011.61
2019-04-10T11:28:16.262Z,1011.51
2019-04-10T11:29:15.260Z,1011.51
2019-04-10T11:30:16.105Z,1011.63
2019-04-10T11:31:15.917Z,1011.53
2019-04-10T11:32:15.239Z,1011.59
2019-04-10T11:33:15.234Z,1011.57
2019-04-10T11:34:16.518Z,1011.61
2019-04-10T11:35:15.625Z,1011.59
2019-04-10T11:36:15.249Z,1011.52
2019-04-10T11:37:24.131Z,1011.60
2019-04-10T11:38:17.486Z,1011.57
2019-04-10T11:39:22.591Z,1011.51
2019-04-10T11:40:17.922Z,1011.56
2019-04-10T11:41:17.657Z,1011.56
2019-04-10T11:42:15.115Z,1011.57
2019-04-10T11:43:15.105Z,1011.64
2019-04-10T11:44:17.154Z,1011.68
2019-04-10T11:45:17.024Z,1011.65
2019-04-10T11:46:15.096Z,1011.57
2019-04-10T11:47:15.062Z,1011.60
2019-04-10T11:48:16.968Z,1011.61
2019-04-10T11:49:15.946Z,1011.67
2019-04-10T11:50:17.871Z,1011.62
2019-04-10T11:51:16.370Z,1011.66
2019-04-10T11:52:17.288Z,1011.67
2019-04-10T11:53:18.687Z,1011.63
2019-04-10T11:54:17.264Z,1011.67
2019-04-10T11:55:19.781Z,1011.69
2019-04-10T11:56:17.974Z,1011.66
2019-04-10T11:57:16.655Z,1011.67
2019-04-10T11:58:17.715Z,1011.63
2019-04-10T11:59:14.924Z,1011.66
2019-04-10T12:00:19.135Z,1011.64
2019-04-10T12:01:17.736Z,1011.55
2019-04-10T12:02:17.106Z,1011.57
2019-04-10T12:03:18.033Z,1011.59
2019-04-10T12:04:16.742Z,1011.68
2019-04-10T12:05:19.937Z,1011.71